Time;durP1;ratioP1;P1;durP2;ratioP2;P2;SDS_P1;SDS_P2;PMS_P1;PMS_P2;Temp;Humidity;BMP_temperature;BMP_pressure;BME280_temperature;BME280_humidity;BME280_pressure;Samples;Min_cycle;Max_cycle;Signal;HPM_P1;HPM_P2
2023/09/20 00:03:16;;;;;;;1.15;0.40;;;;;;;;;;20765588;28;20228;-69
2023/09/20 00:13:18;;;;;;;0.93;0.40;;;;;;;;;;20778683;28;20475;-69
2023/09/20 00:23:21;;;;;;;0.67;0.50;;;;;;;;;;20749589;28;20653;-69
2023/09/20 00:33:23;;;;;;;1.07;0.40;;;;;;;;;;20802251;28;20277;-69
2023/09/20 00:43:27;;;;;;;0.90;0.40;;;;;;;;;;20767710;28;20264;-69
2023/09/20 00:53:29;;;;;;;0.70;0.50;;;;;;;;;;20769747;28;20265;-69
2023/09/20 01:03:35;;;;;;;0.80;0.47;;;18.70;99.90;;;;;;20784645;28;20232;-69
2023/09/20 01:13:38;;;;;;;0.87;0.50;;;;;;;;;;20768463;28;20211;-69
2023/09/20 01:23:43;;;;;;;0.57;0.40;;;;;;;;;;20753395;28;20242;-69
2023/09/20 01:33:44;;;;;;;0.60;0.50;;;;;;;;;;20767703;28;20232;-69
2023/09/20 01:43:47;;;;;;;0.50;0.30;;;;;;;;;;20798883;28;20612;-69
2023/09/20 01:53:49;;;;;;;0.90;0.50;;;;;;;;;;20778008;28;20575;-69
2023/09/20 02:03:51;;;;;;;0.80;0.40;;;;;;;;;;20783200;28;20276;-68
2023/09/20 02:14:01;;;;;;;0.77;0.50;;;18.30;99.90;;;;;;20796655;28;20271;-69
2023/09/20 02:24:09;;;;;;;1.93;0.50;;;;;;;;;;20767047;28;20273;-69
2023/09/20 02:34:13;;;;;;;0.60;0.40;;;;;;;;;;20795002;28;20274;-69
2023/09/20 02:44:14;;;;;;;0.60;0.40;;;;;;;;;;20793519;28;20231;-69
2023/09/20 02:54:17;;;;;;;1.27;0.50;;;;;;;;;;20779090;28;20312;-69
2023/09/20 03:04:19;;;;;;;0.53;0.40;;;;;;;;;;20792434;28;20219;-69
2023/09/20 03:14:23;;;;;;;1.00;0.50;;;;;;;;;;20767834;28;20278;-69
2023/09/20 03:24:29;;;;;;;0.60;0.37;;;;;;;;;;20754679;28;20223;-68
2023/09/20 03:34:32;;;;;;;0.70;0.50;;;;;;;;;;20769306;28;20301;-68
2023/09/20 03:44:35;;;;;;;0.93;0.40;;;;;;;;;;20773024;28;20231;-69
2023/09/20 03:54:38;;;;;;;1.17;0.47;;;;;;;;;;20784553;28;20230;-69
2023/09/20 04:04:41;;;;;;;0.80;0.43;;;;;;;;;;20788070;28;20699;-70
2023/09/20 04:14:43;;;;;;;0.70;0.50;;;;;;;;;;20769182;28;20224;-69
2023/09/20 04:24:44;;;;;;;1.00;0.50;;;;;;;;;;20765287;28;20277;-69
2023/09/20 04:34:46;;;;;;;0.70;0.43;;;;;;;;;;20766612;28;20276;-69
2023/09/20 04:44:49;;;;;;;0.47;0.47;;;;;;;;;;20785137;28;20292;-69
2023/09/20 04:54:52;;;;;;;1.50;0.70;;;;;;;;;;20731925;28;20272;-69
2023/09/20 05:04:56;;;;;;;0.40;0.40;;;;;;;;;;20784923;28;20218;-69
2023/09/20 05:14:59;;;;;;;1.53;0.50;;;;;;;;;;20767731;28;20598;-69
2023/09/20 05:25:03;;;;;;;0.43;0.40;;;;;;;;;;20762540;28;20762;-69
2023/09/20 05:35:08;;;;;;;0.90;0.40;;;;;;;;;;20783492;28;20235;-69
2023/09/20 05:45:10;;;;;;;1.03;0.70;;;;;;;;;;20777887;28;20269;-69
2023/09/20 05:55:14;;;;;;;0.93;0.60;;;;;;;;;;20762141;28;20219;-69
2023/09/20 06:05:16;;;;;;;1.63;0.50;;;;;;;;;;20805615;28;20218;-69
2023/09/20 06:15:18;;;;;;;1.23;0.60;;;;;;;;;;20784813;28;20756;-69
2023/09/20 06:25:21;;;;;;;1.10;0.60;;;18.10;99.90;;;;;;20762764;28;20277;-69
2023/09/20 06:35:24;;;;;;;1.00;0.60;;;;;;;;;;20776126;28;20273;-70
2023/09/20 06:45:27;;;;;;;0.93;0.60;;;;;;;;;;20748952;28;20268;-71
2023/09/20 06:55:28;;;;;;;0.77;0.60;;;;;;;;;;20771333;28;20260;-72
2023/09/20 07:05:30;;;;;;;0.40;0.40;;;;;;;;;;20773591;28;20227;-70
2023/09/20 07:15:34;;;;;;;1.93;0.60;;;;;;;;;;20773508;28;20235;-71
2023/09/20 07:25:37;;;;;;;0.73;0.50;;;;;;;;;;20759237;28;20227;-70
2023/09/20 07:35:48;;;;;;;2.00;0.40;;;;;;;;;;20789854;28;20219;-70
2023/09/20 07:45:50;;;;;;;0.87;0.60;;;;;;;;;;20805025;28;20222;-70
2023/09/20 07:56:03;;;;;;;0.80;0.50;;;;;;;;;;20768384;28;20235;-70
2023/09/20 08:06:09;;;;;;;1.97;0.60;;;;;;;;;;20829635;22;20273;-78
2023/09/20 08:16:12;;;;;;;0.77;0.50;;;;;;;;;;20853495;28;20218;-80
2023/09/20 09:07:37;;;;;;;0.90;0.60;;;;;;;;;;20941313;28;20268;-78
2023/09/20 09:17:40;;;;;;;1.83;0.80;;;21.70;99.90;;;;;;20919231;28;20209;-78
2023/09/20 09:27:43;;;;;;;0.40;0.40;;;21.60;99.90;;;;;;20910021;28;20330;-78
2023/09/20 09:37:46;;;;;;;1.60;0.63;;;;;;;;;;20937597;28;20262;-79
2023/09/20 09:47:47;;;;;;;0.83;0.50;;;;;;;;;;20928616;28;20221;-78
2023/09/20 09:57:49;;;;;;;1.10;0.63;;;;;;;;;;20906285;28;20213;-78
2023/09/20 10:07:52;;;;;;;0.80;0.40;;;;;;;;;;20920257;28;20255;-76
2023/09/20 10:17:55;;;;;;;4.45;0.70;;;;;;;;;;20910067;28;20224;-78
2023/09/20 10:27:57;;;;;;;1.20;0.70;;;;;;;;;;20920332;28;20225;-79
2023/09/20 10:38:05;;;;;;;1.90;0.60;;;23.10;99.90;;;;;;20921249;28;20274;-79
2023/09/20 10:48:12;;;;;;;0.90;0.73;;;23.40;99.90;;;;;;20919152;28;20578;-79
2023/09/20 10:58:15;;;;;;;1.38;0.60;;;;;;;;;;20905548;28;20214;-79
2023/09/20 11:08:17;;;;;;;1.23;0.50;;;;;;;;;;20918130;28;20297;-78
2023/09/20 11:18:21;;;;;;;0.90;0.50;;;;;;;;;;20883778;28;20224;-78
2023/09/20 11:28:23;;;;;;;0.70;0.50;;;;;;;;;;20899147;28;20263;-80
2023/09/20 11:38:26;;;;;;;0.82;0.60;;;24.30;99.90;;;;;;20908030;28;20218;-78
2023/09/20 11:48:29;;;;;;;1.67;0.60;;;;;;;;;;20896865;28;20271;-79
2023/09/20 11:58:34;;;;;;;1.13;0.52;;;;;;;;;;20892673;28;20246;-80
2023/09/20 12:08:37;;;;;;;2.45;0.77;;;;;;;;;;20922727;28;20270;-78
2023/09/20 12:18:38;;;;;;;0.90;0.40;;;;;;;;;;20902003;28;20220;-80
2023/09/20 12:28:41;;;;;;;1.13;0.50;;;;;;;;;;20899782;28;20252;-80
2023/09/20 12:38:44;;;;;;;1.35;0.50;;;;;;;;;;20931283;28;20241;-79
2023/09/20 12:48:47;;;;;;;1.35;0.50;;;;;;;;;;20875447;28;20571;-79
2023/09/20 12:58:52;;;;;;;1.08;0.50;;;;;;;;;;20898914;28;20223;-77
2023/09/20 13:08:55;;;;;;;1.05;0.52;;;;;;;;;;20892847;28;20605;-77
2023/09/20 13:18:58;;;;;;;1.52;0.40;;;;;;;;;;20857982;28;20220;-81
2023/09/20 13:29:01;;;;;;;0.73;0.47;;;;;;;;;;20880372;28;20313;-77
2023/09/20 13:39:05;;;;;;;0.88;0.50;;;;;;;;;;20898077;28;20749;-78
2023/09/20 13:49:06;;;;;;;1.10;0.50;;;;;;;;;;20857533;28;20229;-78
2023/09/20 13:59:10;;;;;;;0.90;0.50;;;;;;;;;;20851195;28;20215;-80
2023/09/20 14:09:13;;;;;;;0.63;0.40;;;;;;;;;;20880309;28;20791;-80
2023/09/20 14:19:15;;;;;;;1.08;0.60;;;;;;;;;;20896379;22;20285;-80
2023/09/20 14:29:17;;;;;;;1.20;0.70;;;;;;;;;;20899294;28;20264;-80
2023/09/20 14:39:19;;;;;;;2.08;0.60;;;;;;;;;;20926233;28;20783;-81
2023/09/20 14:49:21;;;;;;;0.85;0.50;;;;;;;;;;20874768;28;20283;-79
2023/09/20 14:59:23;;;;;;;0.50;0.35;;;;;;;;;;20917960;28;20217;-80
2023/09/20 15:09:24;;;;;;;1.13;0.50;;;;;;;;;;20922183;28;20282;-80
2023/09/20 15:19:27;;;;;;;1.58;0.50;;;;;;;;;;20908969;28;20226;-79
2023/09/20 15:29:31;;;;;;;0.35;0.30;;;;;;;;;;20909522;28;20279;-79
2023/09/20 15:39:36;;;;;;;0.70;0.43;;;;;;;;;;20909447;28;20267;-78
2023/09/20 15:49:37;;;;;;;0.73;0.40;;;;;;;;;;20851425;28;20213;-79
2023/09/20 15:59:39;;;;;;;1.25;0.70;;;;;;;;;;20914050;28;20220;-79
2023/09/20 16:09:41;;;;;;;1.20;0.60;;;;;;;;;;20901299;28;20731;-80
2023/09/20 16:19:43;;;;;;;0.65;0.47;;;;;;;;;;20896844;28;20624;-79
2023/09/20 16:29:45;;;;;;;1.90;0.73;;;;;;;;;;20822443;28;20222;-79
2023/09/20 16:39:47;;;;;;;0.50;0.32;;;;;;;;;;20896194;28;20267;-80
2023/09/20 16:49:51;;;;;;;0.80;0.30;;;;;;;;;;20844980;28;20237;-80
2023/09/20 16:59:53;;;;;;;0.93;0.50;;;;;;;;;;20879007;28;20208;-79
2023/09/20 17:09:54;;;;;;;1.30;0.82;;;;;;;;;;20824712;28;20218;-79
2023/09/20 17:19:56;;;;;;;0.50;0.50;;;;;;;;;;20840438;28;20241;-79
2023/09/20 17:29:58;;;;;;;1.58;0.68;;;;;;;;;;20877768;28;20384;-79
2023/09/20 17:40:00;;;;;;;1.38;0.70;;;;;;;;;;20918768;28;20210;-79
2023/09/20 17:50:02;;;;;;;1.20;0.47;;;;;;;;;;20913089;28;20225;-79
2023/09/20 18:00:14;;;;;;;0.50;0.40;;;;;;;;;;20861900;28;20260;-79
2023/09/20 18:10:16;;;;;;;1.08;0.60;;;;;;;;;;20874489;28;20725;-79
2023/09/20 18:20:19;;;;;;;1.80;0.70;;;;;;;;;;20856868;28;20238;-78
2023/09/20 18:30:21;;;;;;;2.38;0.98;;;;;;;;;;20911692;28;20241;-78
2023/09/20 18:40:24;;;;;;;2.78;0.73;;;;;;;;;;20910989;28;20729;-79
2023/09/20 18:50:28;;;;;;;0.75;0.60;;;;;;;;;;20885990;28;20688;-80
2023/09/20 19:00:31;;;;;;;4.28;0.70;;;22.80;99.90;;;;;;20905588;28;20265;-80
2023/09/20 19:10:33;;;;;;;1.30;0.70;;;;;;;;;;20916655;28;20297;-80
2023/09/20 19:20:38;;;;;;;2.00;0.63;;;22.50;99.90;;;;;;20884190;28;20588;-79
2023/09/20 19:30:40;;;;;;;2.15;0.75;;;;;;;;;;20870888;28;20256;-80
2023/09/20 19:40:42;;;;;;;1.23;0.70;;;;;;;;;;20896376;28;20219;-80
2023/09/20 19:50:44;;;;;;;2.55;0.98;;;;;;;;;;20875274;28;20222;-80
2023/09/20 20:00:46;;;;;;;1.15;0.70;;;;;;;;;;20892132;28;20206;-80
2023/09/20 20:10:48;;;;;;;1.70;0.70;;;;;;;;;;20900424;28;20715;-80
2023/09/20 20:20:51;;;;;;;1.67;0.90;;;;;;;;;;20893403;28;20223;-80
2023/09/20 20:30:52;;;;;;;3.63;1.15;;;;;;;;;;20912475;28;20278;-80
2023/09/20 20:40:54;;;;;;;0.93;0.63;;;;;;;;;;20871924;22;20603;-83
2023/09/20 20:50:57;;;;;;;1.38;0.73;;;;;;;;;;20888070;28;20214;-83
2023/09/20 21:01:00;;;;;;;1.30;0.70;;;;;;;;;;20833138;28;20581;-82
2023/09/20 21:11:09;;;;;;;1.20;0.60;;;;;;;;;;20825256;28;20232;-81
2023/09/20 21:21:11;;;;;;;2.42;0.60;;;;;;;;;;20869480;28;20354;-81
2023/09/20 21:31:16;;;;;;;1.25;0.73;;;;;;;;;;20844888;28;20255;-81
2023/09/20 21:41:17;;;;;;;1.05;0.70;;;;;;;;;;20849237;28;20714;-81
2023/09/20 21:51:19;;;;;;;1.20;0.73;;;;;;;;;;20876515;28;20242;-81
2023/09/20 22:01:21;;;;;;;1.08;0.70;;;;;;;;;;20879489;28;20221;-81
2023/09/20 22:11:23;;;;;;;2.50;0.80;;;;;;;;;;20892765;28;20266;-81
2023/09/20 22:21:24;;;;;;;1.10;0.80;;;;;;;;;;20866647;28;20222;-81
2023/09/20 22:31:28;;;;;;;1.13;0.60;;;;;;;;;;20825609;28;20258;-80
2023/09/20 22:41:30;;;;;;;1.90;0.77;;;;;;;;;;20838047;28;20296;-80
2023/09/20 22:51:32;;;;;;;1.10;0.67;;;;;;;;;;20838017;28;20445;-80
2023/09/20 23:01:34;;;;;;;0.93;0.60;;;;;;;;;;20839459;28;20287;-80
2023/09/20 23:11:38;;;;;;;1.07;0.70;;;;;;;;;;20903194;28;20296;-80
2023/09/20 23:21:40;;;;;;;0.90;0.60;;;;;;;;;;20909395;28;20217;-80
2023/09/20 23:31:47;;;;;;;0.93;0.67;;;;;;;;;;20878744;28;20231;-80
2023/09/20 23:41:49;;;;;;;1.30;0.77;;;;;;;;;;20860365;28;20230;-80
2023/09/20 23:51:53;;;;;;;1.67;0.80;;;;;;;;;;20818655;28;20285;-80
